sensor_id;sensor_type;location;lat;lon;timestamp;pressure;altitude;pressure_sealevel;temperature;humidity
55679;BME280;41573;51.446;-2.018;2022-09-03T00:02:46;99906.84;;;17.18;100.00
55679;BME280;41573;51.446;-2.018;2022-09-03T00:11:02;99887.94;;;17.10;100.00
55679;BME280;41573;51.446;-2.018;2022-09-03T00:13:37;99880.84;;;17.09;100.00
55679;BME280;41573;51.446;-2.018;2022-09-03T00:16:07;99875.63;;;17.08;100.00
55679;BME280;41573;51.446;-2.018;2022-09-03T00:18:36;99882.97;;;17.05;100.00
55679;BME280;41573;51.446;-2.018;2022-09-03T00:21:09;99873.56;;;17.01;100.00
55679;BME280;41573;51.446;-2.018;2022-09-03T00:23:39;99880.91;;;16.99;100.00
55679;BME280;41573;51.446;-2.018;2022-09-03T00:26:26;99877.81;;;16.94;100.00
55679;BME280;41573;51.446;-2.018;2022-09-03T00:29:00;99879.81;;;16.92;100.00
55679;BME280;41573;51.446;-2.018;2022-09-03T00:34:10;99875.03;;;16.86;100.00
55679;BME280;41573;51.446;-2.018;2022-09-03T00:36:42;99871.63;;;16.84;100.00
55679;BME280;41573;51.446;-2.018;2022-09-03T00:39:27;99864.84;;;16.80;100.00
55679;BME280;41573;51.446;-2.018;2022-09-03T00:42:29;99862.94;;;16.72;100.00
55679;BME280;41573;51.446;-2.018;2022-09-03T00:45:27;99875.00;;;16.58;100.00
55679;BME280;41573;51.446;-2.018;2022-09-03T00:59:02;99869.44;;;15.94;100.00
55679;BME280;41573;51.446;-2.018;2022-09-03T01:13:13;99862.69;;;15.71;100.00
55679;BME280;41573;51.446;-2.018;2022-09-03T01:25:20;99870.28;;;15.16;100.00
55679;BME280;41573;51.446;-2.018;2022-09-03T01:30:13;99856.72;;;14.98;100.00
55679;BME280;41573;51.446;-2.018;2022-09-03T01:47:14;99853.03;;;14.80;100.00
55679;BME280;41573;51.446;-2.018;2022-09-03T02:01:24;99868.44;;;14.57;100.00
55679;BME280;41573;51.446;-2.018;2022-09-03T02:03:52;99860.66;;;14.54;100.00
55679;BME280;41573;51.446;-2.018;2022-09-03T02:06:28;99877.75;;;14.53;100.00
55679;BME280;41573;51.446;-2.018;2022-09-03T02:08:57;99878.84;;;14.50;100.00
55679;BME280;41573;51.446;-2.018;2022-09-03T02:11:23;99878.13;;;14.48;100.00
55679;BME280;41573;51.446;-2.018;2022-09-03T02:13:52;99874.88;;;14.44;100.00
55679;BME280;41573;51.446;-2.018;2022-09-03T02:16:21;99869.94;;;14.40;100.00
55679;BME280;41573;51.446;-2.018;2022-09-03T02:18:55;99874.28;;;14.41;100.00
55679;BME280;41573;51.446;-2.018;2022-09-03T02:21:24;99870.66;;;14.42;100.00
55679;BME280;41573;51.446;-2.018;2022-09-03T02:23:49;99868.66;;;14.44;100.00
55679;BME280;41573;51.446;-2.018;2022-09-03T02:26:20;99856.31;;;14.53;100.00
55679;BME280;41573;51.446;-2.018;2022-09-03T02:28:46;99862.69;;;14.61;100.00
55679;BME280;41573;51.446;-2.018;2022-09-03T02:31:12;99850.19;;;14.72;100.00
55679;BME280;41573;51.446;-2.018;2022-09-03T02:33:39;99856.00;;;14.77;100.00
55679;BME280;41573;51.446;-2.018;2022-09-03T02:36:09;99858.38;;;14.80;100.00
55679;BME280;41573;51.446;-2.018;2022-09-03T02:38:36;99867.72;;;14.86;100.00
55679;BME280;41573;51.446;-2.018;2022-09-03T02:41:02;99860.38;;;14.88;100.00
55679;BME280;41573;51.446;-2.018;2022-09-03T02:45:57;99860.38;;;14.97;100.00
55679;BME280;41573;51.446;-2.018;2022-09-03T02:48:24;99852.78;;;15.03;100.00
55679;BME280;41573;51.446;-2.018;2022-09-03T02:50:50;99859.56;;;15.07;100.00
55679;BME280;41573;51.446;-2.018;2022-09-03T02:53:15;99863.78;;;15.09;100.00
55679;BME280;41573;51.446;-2.018;2022-09-03T02:55:41;99858.31;;;15.11;100.00
55679;BME280;41573;51.446;-2.018;2022-09-03T02:58:06;99857.59;;;15.09;100.00
55679;BME280;41573;51.446;-2.018;2022-09-03T03:00:32;99853.94;;;15.10;100.00
55679;BME280;41573;51.446;-2.018;2022-09-03T03:02:58;99853.94;;;15.10;100.00
55679;BME280;41573;51.446;-2.018;2022-09-03T03:08:11;99860.41;;;15.07;100.00
55679;BME280;41573;51.446;-2.018;2022-09-03T03:10:42;99858.84;;;15.05;100.00
55679;BME280;41573;51.446;-2.018;2022-09-03T03:13:09;99854.44;;;14.84;100.00
55679;BME280;41573;51.446;-2.018;2022-09-03T03:15:34;99847.66;;;14.70;100.00
55679;BME280;41573;51.446;-2.018;2022-09-03T03:18:00;99846.06;;;14.68;100.00
55679;BME280;41573;51.446;-2.018;2022-09-03T03:20:25;99841.13;;;14.63;100.00
55679;BME280;41573;51.446;-2.018;2022-09-03T03:22:50;99836.75;;;14.62;100.00
55679;BME280;41573;51.446;-2.018;2022-09-03T03:25:16;99845.63;;;14.62;100.00
55679;BME280;41573;51.446;-2.018;2022-09-03T03:27:41;99848.56;;;14.59;100.00
55679;BME280;41573;51.446;-2.018;2022-09-03T03:30:09;99853.91;;;14.59;100.00
55679;BME280;41573;51.446;-2.018;2022-09-03T03:32:36;99858.28;;;14.60;100.00
55679;BME280;41573;51.446;-2.018;2022-09-03T03:35:02;99862.69;;;14.61;100.00
55679;BME280;41573;51.446;-2.018;2022-09-03T03:37:28;99852.84;;;14.62;100.00
55679;BME280;41573;51.446;-2.018;2022-09-03T03:39:53;99852.56;;;14.65;100.00
55679;BME280;41573;51.446;-2.018;2022-09-03T03:42:19;99863.13;;;14.67;100.00
55679;BME280;41573;51.446;-2.018;2022-09-03T03:44:44;99855.81;;;14.69;100.00
55679;BME280;41573;51.446;-2.018;2022-09-03T03:47:10;99855.53;;;14.72;100.00
55679;BME280;41573;51.446;-2.018;2022-09-03T03:49:36;99858.22;;;14.72;100.00
55679;BME280;41573;51.446;-2.018;2022-09-03T03:52:02;99859.06;;;14.72;100.00
55679;BME280;41573;51.446;-2.018;2022-09-03T03:54:28;99854.97;;;14.68;100.00
55679;BME280;41573;51.446;-2.018;2022-09-03T03:56:54;99854.00;;;14.48;100.00
55679;BME280;41573;51.446;-2.018;2022-09-03T03:59:19;99855.13;;;14.36;100.00
55679;BME280;41573;51.446;-2.018;2022-09-03T04:01:44;99855.84;;;14.17;100.00
55679;BME280;41573;51.446;-2.018;2022-09-03T04:04:10;99852.69;;;14.02;100.00
55679;BME280;41573;51.446;-2.018;2022-09-03T04:06:35;99852.50;;;13.93;100.00
55679;BME280;41573;51.446;-2.018;2022-09-03T04:09:01;99846.03;;;13.96;100.00
55679;BME280;41573;51.446;-2.018;2022-09-03T04:11:26;99845.19;;;13.95;100.00
55679;BME280;41573;51.446;-2.018;2022-09-03T04:13:52;99842.50;;;13.95;100.00
55679;BME280;41573;51.446;-2.018;2022-09-03T04:16:22;99844.47;;;13.93;100.00
55679;BME280;41573;51.446;-2.018;2022-09-03T04:18:49;99848.25;;;13.91;100.00
55679;BME280;41573;51.446;-2.018;2022-09-03T04:21:17;99844.22;;;13.96;100.00
55679;BME280;41573;51.446;-2.018;2022-09-03T04:23:44;99847.91;;;14.05;100.00
55679;BME280;41573;51.446;-2.018;2022-09-03T04:26:12;99847.78;;;14.07;100.00
55679;BME280;41573;51.446;-2.018;2022-09-03T04:28:38;99837.78;;;14.09;100.00
55679;BME280;41573;51.446;-2.018;2022-09-03T04:31:08;99839.47;;;14.10;100.00
55679;BME280;41573;51.446;-2.018;2022-09-03T04:33:34;99836.38;;;14.05;100.00
55679;BME280;41573;51.446;-2.018;2022-09-03T04:36:09;99838.84;;;13.96;100.00
55679;BME280;41573;51.446;-2.018;2022-09-03T04:38:37;99837.69;;;13.89;100.00
55679;BME280;41573;51.446;-2.018;2022-09-03T04:41:04;99834.53;;;13.84;100.00
55679;BME280;41573;51.446;-2.018;2022-09-03T04:43:30;99829.47;;;13.81;100.00
55679;BME280;41573;51.446;-2.018;2022-09-03T04:46:00;99825.22;;;13.78;100.00
55679;BME280;41573;51.446;-2.018;2022-09-03T04:48:27;99833.38;;;13.77;100.00
55679;BME280;41573;51.446;-2.018;2022-09-03T04:50:53;99833.97;;;13.81;100.00
55679;BME280;41573;51.446;-2.018;2022-09-03T04:53:19;99842.19;;;13.89;100.00
55679;BME280;41573;51.446;-2.018;2022-09-03T04:55:44;99838.84;;;13.96;100.00
55679;BME280;41573;51.446;-2.018;2022-09-03T04:58:10;99846.09;;;14.06;100.00
55679;BME280;41573;51.446;-2.018;2022-09-03T05:00:36;99844.44;;;14.14;100.00
55679;BME280;41573;51.446;-2.018;2022-09-03T05:03:02;99844.88;;;14.20;100.00
55679;BME280;41573;51.446;-2.018;2022-09-03T05:05:30;99840.13;;;14.23;100.00
55679;BME280;41573;51.446;-2.018;2022-09-03T05:07:59;99848.59;;;14.28;100.00
55679;BME280;41573;51.446;-2.018;2022-09-03T05:10:28;99841.97;;;14.32;100.00
55679;BME280;41573;51.446;-2.018;2022-09-03T05:12:59;99841.00;;;14.34;100.00
55679;BME280;41573;51.446;-2.018;2022-09-03T05:15:25;99825.78;;;14.34;100.00
55679;BME280;41573;51.446;-2.018;2022-09-03T05:17:55;99833.41;;;14.39;100.00
55679;BME280;41573;51.446;-2.018;2022-09-03T05:20:20;99832.44;;;14.40;100.00
55679;BME280;41573;51.446;-2.018;2022-09-03T05:22:46;99835.97;;;14.40;100.00
55679;BME280;41573;51.446;-2.018;2022-09-03T05:25:12;99840.19;;;14.43;100.00
55679;BME280;41573;51.446;-2.018;2022-09-03T05:27:37;99847.22;;;14.44;100.00
55679;BME280;41573;51.446;-2.018;2022-09-03T05:30:03;99837.38;;;14.44;100.00
55679;BME280;41573;51.446;-2.018;2022-09-03T05:32:30;99845.41;;;14.44;100.00
55679;BME280;41573;51.446;-2.018;2022-09-03T05:34:55;99852.59;;;14.44;100.00
55679;BME280;41573;51.446;-2.018;2022-09-03T05:37:21;99854.28;;;14.45;100.00
55679;BME280;41573;51.446;-2.018;2022-09-03T05:39:47;99845.28;;;14.46;100.00
55679;BME280;41573;51.446;-2.018;2022-09-03T05:42:13;99848.78;;;14.46;100.00
55679;BME280;41573;51.446;-2.018;2022-09-03T05:44:39;99846.97;;;14.47;100.00
55679;BME280;41573;51.446;-2.018;2022-09-03T05:47:04;99846.97;;;14.47;100.00
55679;BME280;41573;51.446;-2.018;2022-09-03T05:49:30;99840.63;;;14.48;100.00
55679;BME280;41573;51.446;-2.018;2022-09-03T05:51:56;99849.53;;;14.48;100.00
55679;BME280;41573;51.446;-2.018;2022-09-03T05:54:22;99845.84;;;14.49;100.00
55679;BME280;41573;51.446;-2.018;2022-09-03T05:56:47;99846.13;;;14.46;100.00
55679;BME280;41573;51.446;-2.018;2022-09-03T05:59:14;99845.00;;;14.49;100.00
55679;BME280;41573;51.446;-2.018;2022-09-03T06:01:44;99840.75;;;14.46;100.00
55679;BME280;41573;51.446;-2.018;2022-09-03T06:04:12;99847.09;;;14.45;100.00
55679;BME280;41573;51.446;-2.018;2022-09-03T06:06:40;99852.34;;;14.47;100.00
55679;BME280;41573;51.446;-2.018;2022-09-03T06:09:11;99854.00;;;14.48;100.00
55679;BME280;41573;51.446;-2.018;2022-09-03T06:11:38;99851.34;;;14.48;100.00
55679;BME280;41573;51.446;-2.018;2022-09-03T06:14:06;99862.91;;;14.48;100.00
55679;BME280;41573;51.446;-2.018;2022-09-03T06:16:37;99863.63;;;14.51;100.00
55679;BME280;41573;51.446;-2.018;2022-09-03T06:19:03;99860.81;;;14.52;100.00
55679;BME280;41573;51.446;-2.018;2022-09-03T06:21:37;99864.22;;;14.54;100.00
55679;BME280;41573;51.446;-2.018;2022-09-03T06:24:11;99868.44;;;14.57;100.00
55679;BME280;41573;51.446;-2.018;2022-09-03T06:26:38;99862.97;;;14.58;100.00
55679;BME280;41573;51.446;-2.018;2022-09-03T06:29:04;99853.78;;;14.61;100.00
55679;BME280;41573;51.446;-2.018;2022-09-03T06:31:29;99856.34;;;14.62;100.00
55679;BME280;41573;51.446;-2.018;2022-09-03T06:33:55;99864.00;;;14.67;100.00
55679;BME280;41573;51.446;-2.018;2022-09-03T06:36:22;99869.09;;;14.70;100.00
55679;BME280;41573;51.446;-2.018;2022-09-03T06:38:51;99870.50;;;14.74;100.00
55679;BME280;41573;51.446;-2.018;2022-09-03T06:41:19;99865.00;;;14.76;100.00
55679;BME280;41573;51.446;-2.018;2022-09-03T06:43:52;99878.00;;;14.80;100.00
55679;BME280;41573;51.446;-2.018;2022-09-03T06:46:20;99873.06;;;14.86;100.00
55679;BME280;41573;51.446;-2.018;2022-09-03T06:48:47;99874.50;;;14.90;100.00
55679;BME280;41573;51.446;-2.018;2022-09-03T06:51:14;99878.47;;;14.95;100.00
55679;BME280;41573;51.446;-2.018;2022-09-03T06:53:45;99878.88;;;15.00;100.00
55679;BME280;41573;51.446;-2.018;2022-09-03T06:56:13;99877.47;;;15.06;100.00
55679;BME280;41573;51.446;-2.018;2022-09-03T06:58:44;99877.78;;;15.13;100.00
55679;BME280;41573;51.446;-2.018;2022-09-03T07:01:16;99878.22;;;15.18;100.00
55679;BME280;41573;51.446;-2.018;2022-09-03T07:03:43;99877.78;;;15.23;100.00
55679;BME280;41573;51.446;-2.018;2022-09-03T07:06:11;99883.47;;;15.29;100.00
55679;BME280;41573;51.446;-2.018;2022-09-03T07:08:37;99882.16;;;15.33;100.00
55679;BME280;41573;51.446;-2.018;2022-09-03T07:11:05;99881.63;;;15.40;100.00
55679;BME280;41573;51.446;-2.018;2022-09-03T07:13:42;99879.34;;;15.45;100.00
55679;BME280;41573;51.446;-2.018;2022-09-03T07:16:14;99878.66;;;15.52;100.00
55679;BME280;41573;51.446;-2.018;2022-09-03T07:18:40;99872.84;;;15.57;100.00
55679;BME280;41573;51.446;-2.018;2022-09-03T07:21:07;99879.47;;;15.63;100.00
55679;BME280;41573;51.446;-2.018;2022-09-03T07:23:34;99886.84;;;15.71;100.00
55679;BME280;41573;51.446;-2.018;2022-09-03T07:26:02;99878.22;;;15.77;100.00
55679;BME280;41573;51.446;-2.018;2022-09-03T07:28:29;99886.44;;;15.85;100.00
55679;BME280;41573;51.446;-2.018;2022-09-03T07:31:05;99873.09;;;15.93;100.00
55679;BME280;41573;51.446;-2.018;2022-09-03T07:33:30;99879.03;;;16.07;100.00
55679;BME280;41573;51.446;-2.018;2022-09-03T07:36:02;99876.16;;;16.18;100.00
55679;BME280;41573;51.446;-2.018;2022-09-03T07:38:28;99875.28;;;16.27;100.00
55679;BME280;41573;51.446;-2.018;2022-09-03T07:41:01;99878.81;;;16.37;100.00
55679;BME280;41573;51.446;-2.018;2022-09-03T07:43:28;99877.91;;;16.47;100.00
55679;BME280;41573;51.446;-2.018;2022-09-03T07:45:56;99876.00;;;16.57;100.00
55679;BME280;41573;51.446;-2.018;2022-09-03T07:48:22;99879.09;;;16.62;100.00
55679;BME280;41573;51.446;-2.018;2022-09-03T07:50:48;99879.38;;;16.69;100.00
55679;BME280;41573;51.446;-2.018;2022-09-03T07:53:17;99883.28;;;16.75;100.00
55679;BME280;41573;51.446;-2.018;2022-09-03T07:55:45;99875.91;;;16.77;100.00
55679;BME280;41573;51.446;-2.018;2022-09-03T07:58:11;99889.06;;;16.80;100.00
55679;BME280;41573;51.446;-2.018;2022-09-03T08:00:38;99881.84;;;16.80;100.00
55679;BME280;41573;51.446;-2.018;2022-09-03T08:03:03;99886.22;;;16.81;100.00
55679;BME280;41573;51.446;-2.018;2022-09-03T08:05:33;99889.47;;;16.85;100.00
55679;BME280;41573;51.446;-2.018;2022-09-03T08:08:03;99885.78;;;16.86;100.00
55679;BME280;41573;51.446;-2.018;2022-09-03T08:10:30;99881.41;;;16.85;100.00
55679;BME280;41573;51.446;-2.018;2022-09-03T08:12:58;99871.31;;;16.87;100.00
55679;BME280;41573;51.446;-2.018;2022-09-03T08:15:24;99873.06;;;16.88;100.00
55679;BME280;41573;51.446;-2.018;2022-09-03T08:17:50;99879.16;;;16.90;100.00
55679;BME280;41573;51.446;-2.018;2022-09-03T08:20:16;99882.50;;;16.92;100.00
55679;BME280;41573;51.446;-2.018;2022-09-03T08:22:42;99873.31;;;16.95;100.00
55679;BME280;41573;51.446;-2.018;2022-09-03T08:25:08;99875.38;;;17.01;100.00
55679;BME280;41573;51.446;-2.018;2022-09-03T08:27:33;99882.88;;;17.07;100.00
55679;BME280;41573;51.446;-2.018;2022-09-03T08:29:59;99864.97;;;17.16;100.00
55679;BME280;41573;51.446;-2.018;2022-09-03T08:32:24;99875.41;;;17.19;100.00
55679;BME280;41573;51.446;-2.018;2022-09-03T08:34:50;99869.41;;;17.25;100.00
55679;BME280;41573;51.446;-2.018;2022-09-03T08:37:16;99865.41;;;17.29;100.00
55679;BME280;41573;51.446;-2.018;2022-09-03T08:39:43;99861.81;;;17.38;100.00
55679;BME280;41573;51.446;-2.018;2022-09-03T08:45:01;99869.81;;;17.48;100.00
55679;BME280;41573;51.446;-2.018;2022-09-03T08:47:42;99876.25;;;17.55;100.00
55679;BME280;41573;51.446;-2.018;2022-09-03T08:50:24;99880.47;;;17.58;100.00
55679;BME280;41573;51.446;-2.018;2022-09-03T08:52:59;99877.34;;;17.63;100.00
55679;BME280;41573;51.446;-2.018;2022-09-03T08:55:33;99874.16;;;17.67;100.00
55679;BME280;41573;51.446;-2.018;2022-09-03T08:58:20;99875.53;;;17.71;100.00
55679;BME280;41573;51.446;-2.018;2022-09-03T09:21:44;99889.22;;;17.96;100.00
55679;BME280;41573;51.446;-2.018;2022-09-03T09:24:22;99891.31;;;18.02;100.00
55679;BME280;41573;51.446;-2.018;2022-09-03T09:26:58;99905.44;;;18.04;100.00
55679;BME280;41573;51.446;-2.018;2022-09-03T09:29:26;99889.94;;;18.06;100.00
55679;BME280;41573;51.446;-2.018;2022-09-03T09:31:54;99901.44;;;18.08;100.00
55679;BME280;41573;51.446;-2.018;2022-09-03T09:34:19;99894.19;;;18.09;100.00
55679;BME280;41573;51.446;-2.018;2022-09-03T09:36:51;99894.56;;;18.14;100.00
55679;BME280;41573;51.446;-2.018;2022-09-03T09:39:17;99895.09;;;18.18;100.00
55679;BME280;41573;51.446;-2.018;2022-09-03T09:41:56;99891.78;;;18.24;100.00
55679;BME280;41573;51.446;-2.018;2022-09-03T09:44:24;99896.19;;;18.33;100.00
55679;BME280;41573;51.446;-2.018;2022-09-03T09:46:50;99896.56;;;18.38;100.00
55679;BME280;41573;51.446;-2.018;2022-09-03T09:52:10;99896.28;;;18.50;100.00
55679;BME280;41573;51.446;-2.018;2022-09-03T09:54:36;99900.53;;;18.52;100.00
55679;BME280;41573;51.446;-2.018;2022-09-03T09:57:11;99903.06;;;18.54;100.00
55679;BME280;41573;51.446;-2.018;2022-09-03T09:59:38;99895.47;;;18.57;100.00
55679;BME280;41573;51.446;-2.018;2022-09-03T10:02:18;99896.34;;;18.58;100.00
55679;BME280;41573;51.446;-2.018;2022-09-03T10:04:44;99897.88;;;18.60;100.00
55679;BME280;41573;51.446;-2.018;2022-09-03T10:07:25;99900.41;;;18.62;100.00
55679;BME280;41573;51.446;-2.018;2022-09-03T10:10:15;99898.53;;;18.63;100.00
55679;BME280;41573;51.446;-2.018;2022-09-03T10:12:46;99897.06;;;18.68;100.00
55679;BME280;41573;51.446;-2.018;2022-09-03T10:15:29;99895.41;;;18.75;100.00
55679;BME280;41573;51.446;-2.018;2022-09-03T10:18:13;99894.44;;;18.85;100.00
55679;BME280;41573;51.446;-2.018;2022-09-03T10:24:23;99875.44;;;19.03;100.00
55679;BME280;41573;51.446;-2.018;2022-09-03T10:26:51;99881.06;;;19.18;100.00
55679;BME280;41573;51.446;-2.018;2022-09-03T10:29:22;99884.59;;;19.18;100.00
55679;BME280;41573;51.446;-2.018;2022-09-03T10:35:17;99884.78;;;19.25;100.00
55679;BME280;41573;51.446;-2.018;2022-09-03T10:41:02;99879.72;;;19.38;100.00
55679;BME280;41573;51.446;-2.018;2022-09-03T10:49:30;99885.16;;;19.55;100.00
55679;BME280;41573;51.446;-2.018;2022-09-03T10:52:15;99877.41;;;19.52;100.00
55679;BME280;41573;51.446;-2.018;2022-09-03T10:55:12;99880.75;;;19.54;100.00
55679;BME280;41573;51.446;-2.018;2022-09-03T11:00:12;99869.44;;;19.58;100.00
55679;BME280;41573;51.446;-2.018;2022-09-03T11:03:01;99879.25;;;19.68;100.00
55679;BME280;41573;51.446;-2.018;2022-09-03T11:05:40;99874.84;;;19.75;100.00
55679;BME280;41573;51.446;-2.018;2022-09-03T11:08:21;99868.78;;;19.81;100.00
55679;BME280;41573;51.446;-2.018;2022-09-03T11:10:54;99873.03;;;19.84;100.00
55679;BME280;41573;51.446;-2.018;2022-09-03T11:13:29;99868.63;;;19.91;100.00
55679;BME280;41573;51.446;-2.018;2022-09-03T11:16:16;99866.25;;;19.88;100.00
55679;BME280;41573;51.446;-2.018;2022-09-03T11:21:17;99865.91;;;19.83;100.00
55679;BME280;41573;51.446;-2.018;2022-09-03T11:23:47;99863.56;;;19.79;100.00
55679;BME280;41573;51.446;-2.018;2022-09-03T11:26:17;99869.63;;;19.73;100.00
55679;BME280;41573;51.446;-2.018;2022-09-03T11:31:37;99871.47;;;19.73;100.00
55679;BME280;41573;51.446;-2.018;2022-09-03T11:34:15;99871.47;;;19.73;100.00
55679;BME280;41573;51.446;-2.018;2022-09-03T11:36:50;99872.69;;;19.87;100.00
55679;BME280;41573;51.446;-2.018;2022-09-03T11:39:23;99867.28;;;19.87;100.00
55679;BME280;41573;51.446;-2.018;2022-09-03T11:42:02;99869.97;;;19.95;100.00
55679;BME280;41573;51.446;-2.018;2022-09-03T11:44:39;99871.66;;;19.96;100.00
55679;BME280;41573;51.446;-2.018;2022-09-03T11:47:15;99869.78;;;19.96;100.00
55679;BME280;41573;51.446;-2.018;2022-09-03T11:49:47;99866.91;;;19.98;100.00
55679;BME280;41573;51.446;-2.018;2022-09-03T11:52:27;99868.44;;;20.01;100.00
55679;BME280;41573;51.446;-2.018;2022-09-03T11:54:54;99869.63;;;19.98;100.00
55679;BME280;41573;51.446;-2.018;2022-09-03T11:57:42;99876.38;;;19.94;100.00
55679;BME280;41573;51.446;-2.018;2022-09-03T12:00:11;99870.66;;;19.89;100.00
55679;BME280;41573;51.446;-2.018;2022-09-03T12:02:43;99867.28;;;19.87;100.00
55679;BME280;41573;51.446;-2.018;2022-09-03T12:16:56;99873.38;;;19.97;100.00
55679;BME280;41573;51.446;-2.018;2022-09-03T12:19:44;99867.78;;;19.98;100.00
55679;BME280;41573;51.446;-2.018;2022-09-03T12:22:14;99880.09;;;20.01;100.00
55679;BME280;41573;51.446;-2.018;2022-09-03T12:24:40;99877.06;;;20.04;100.00
55679;BME280;41573;51.446;-2.018;2022-09-03T12:27:09;99869.97;;;20.11;100.00
55679;BME280;41573;51.446;-2.018;2022-09-03T12:29:37;99876.84;;;20.14;100.00
55679;BME280;41573;51.446;-2.018;2022-09-03T12:32:10;99877.38;;;20.18;100.00
55679;BME280;41573;51.446;-2.018;2022-09-03T12:34:37;99879.72;;;20.21;100.00
55679;BME280;41573;51.446;-2.018;2022-09-03T12:37:17;99879.72;;;20.21;100.00
55679;BME280;41573;51.446;-2.018;2022-09-03T12:39:49;99879.53;;;20.22;100.00
55679;BME280;41573;51.446;-2.018;2022-09-03T12:42:27;99883.59;;;20.26;100.00
55679;BME280;41573;51.446;-2.018;2022-09-03T12:44:53;99886.13;;;20.28;100.00
55679;BME280;41573;51.446;-2.018;2022-09-03T12:47:23;99880.38;;;20.31;100.00
55679;BME280;41573;51.446;-2.018;2022-09-03T12:49:51;99879.00;;;20.35;100.00
55679;BME280;41573;51.446;-2.018;2022-09-03T12:54:56;99891.50;;;20.36;100.00
55679;BME280;41573;51.446;-2.018;2022-09-03T12:57:34;99884.41;;;20.35;100.00
55679;BME280;41573;51.446;-2.018;2022-09-03T13:00:05;99889.50;;;20.30;100.00
55679;BME280;41573;51.446;-2.018;2022-09-03T13:02:45;99888.53;;;20.23;100.00
55679;BME280;41573;51.446;-2.018;2022-09-03T13:05:17;99890.06;;;20.17;100.00
55679;BME280;41573;51.446;-2.018;2022-09-03T13:07:48;99893.59;;;20.09;100.00
55679;BME280;41573;51.446;-2.018;2022-09-03T13:10:31;99893.78;;;20.00;100.00
55679;BME280;41573;51.446;-2.018;2022-09-03T13:13:06;99902.75;;;19.84;100.00
55679;BME280;41573;51.446;-2.018;2022-09-03T13:15:33;99896.97;;;19.62;100.00
55679;BME280;41573;51.446;-2.018;2022-09-03T13:18:05;99905.03;;;19.45;100.00
55679;BME280;41573;51.446;-2.018;2022-09-03T13:20:45;99899.63;;;19.21;100.00
55679;BME280;41573;51.446;-2.018;2022-09-03T13:23:30;99899.91;;;19.01;100.00
55679;BME280;41573;51.446;-2.018;2022-09-03T13:31:43;99909.84;;;18.66;100.00
55679;BME280;41573;51.446;-2.018;2022-09-03T13:34:19;99916.59;;;18.62;100.00
55679;BME280;41573;51.446;-2.018;2022-09-03T13:36:54;99914.56;;;18.64;100.00
55679;BME280;41573;51.446;-2.018;2022-09-03T13:39:40;99918.47;;;18.70;100.00
55679;BME280;41573;51.446;-2.018;2022-09-03T13:42:12;99921.41;;;18.85;100.00
55679;BME280;41573;51.446;-2.018;2022-09-03T13:44:54;99914.59;;;19.07;100.00
55679;BME280;41573;51.446;-2.018;2022-09-03T13:50:52;99912.00;;;19.56;100.00
55679;BME280;41573;51.446;-2.018;2022-09-03T13:59:27;99897.00;;;19.95;100.00
55679;BME280;41573;51.446;-2.018;2022-09-03T14:04:50;99890.53;;;20.21;100.00
55679;BME280;41573;51.446;-2.018;2022-09-03T14:07:37;99889.50;;;20.30;100.00
55679;BME280;41573;51.446;-2.018;2022-09-03T14:15:22;99903.66;;;20.48;100.00
55679;BME280;41573;51.446;-2.018;2022-09-03T14:20:46;99905.72;;;20.38;100.00
55679;BME280;41573;51.446;-2.018;2022-09-03T14:23:44;99912.50;;;20.34;100.00
55679;BME280;41573;51.446;-2.018;2022-09-03T14:26:26;99908.09;;;20.33;100.00
55679;BME280;41573;51.446;-2.018;2022-09-03T14:29:20;99915.69;;;20.29;100.00
55679;BME280;41573;51.446;-2.018;2022-09-03T14:34:49;99917.03;;;20.25;100.00
55679;BME280;41573;51.446;-2.018;2022-09-03T14:40:43;99915.22;;;20.09;100.00
55679;BME280;41573;51.446;-2.018;2022-09-03T14:43:19;99908.63;;;20.04;100.00
55679;BME280;41573;51.446;-2.018;2022-09-03T14:51:37;99915.38;;;20.08;100.00
55679;BME280;41573;51.446;-2.018;2022-09-03T15:07:44;99910.53;;;20.59;100.00
55679;BME280;41573;51.446;-2.018;2022-09-03T15:15:35;99922.66;;;20.88;100.00
55679;BME280;41573;51.446;-2.018;2022-09-03T15:21:37;99917.66;;;20.60;100.00
55679;BME280;41573;51.446;-2.018;2022-09-03T15:24:06;99913.78;;;20.55;100.00
55679;BME280;41573;51.446;-2.018;2022-09-03T15:40:05;99946.44;;;20.37;100.00
55679;BME280;41573;51.446;-2.018;2022-09-03T15:42:32;99948.66;;;20.33;100.00
55679;BME280;41573;51.446;-2.018;2022-09-03T15:45:15;99947.66;;;20.26;100.00
55679;BME280;41573;51.446;-2.018;2022-09-03T15:50:34;99957.81;;;20.15;100.00
55679;BME280;41573;51.446;-2.018;2022-09-03T15:55:36;99955.59;;;19.94;100.00
55679;BME280;41573;51.446;-2.018;2022-09-03T16:12:00;99979.03;;;19.77;100.00
55679;BME280;41573;51.446;-2.018;2022-09-03T16:14:42;99983.25;;;19.72;100.00
55679;BME280;41573;51.446;-2.018;2022-09-03T16:17:27;99984.09;;;19.72;100.00
55679;BME280;41573;51.446;-2.018;2022-09-03T16:20:15;99988.47;;;19.65;100.00
55679;BME280;41573;51.446;-2.018;2022-09-03T16:22:48;99996.91;;;19.62;100.00
55679;BME280;41573;51.446;-2.018;2022-09-03T16:25:28;99987.06;;;19.53;100.00
55679;BME280;41573;51.446;-2.018;2022-09-03T16:28:02;99999.22;;;19.49;100.00
55679;BME280;41573;51.446;-2.018;2022-09-03T16:30:52;99993.66;;;19.42;99.91
55679;BME280;41573;51.446;-2.018;2022-09-03T16:33:51;99999.84;;;19.34;95.86
55679;BME280;41573;51.446;-2.018;2022-09-03T16:36:31;100000.34;;;19.29;98.32
55679;BME280;41573;51.446;-2.018;2022-09-03T16:44:55;100007.78;;;19.27;100.00
55679;BME280;41573;51.446;-2.018;2022-09-03T16:52:59;99998.47;;;19.22;100.00
55679;BME280;41573;51.446;-2.018;2022-09-03T16:58:32;99997.44;;;19.15;100.00
55679;BME280;41573;51.446;-2.018;2022-09-03T17:09:33;100000.44;;;19.03;100.00
55679;BME280;41573;51.446;-2.018;2022-09-03T17:12:46;100003.44;;;19.00;100.00
55679;BME280;41573;51.446;-2.018;2022-09-03T17:15:24;100003.59;;;18.99;100.00
55679;BME280;41573;51.446;-2.018;2022-09-03T17:37:25;99998.44;;;18.79;100.00